createdAt,value
2019-05-28T00:00:49.957Z,97204.88
2019-05-28T00:03:21.556Z,97210.14
2019-05-28T00:05:53.116Z,97200.77
2019-05-28T00:08:24.708Z,97204.05
2019-05-28T00:10:56.265Z,97196.31
2019-05-28T00:13:27.868Z,97197.63
2019-05-28T00:15:59.555Z,97193.66
2019-05-28T00:18:31.146Z,97193.52
2019-05-28T00:21:02.710Z,97189.91
2019-05-28T00:23:34.393Z,97190.21
2019-05-28T00:26:06.050Z,97192.20
2019-05-28T00:28:38.823Z,97186.59
2019-05-28T00:31:10.417Z,97185.60
2019-05-28T00:33:41.996Z,97187.77
2019-05-28T00:36:13.564Z,97186.44
2019-05-28T00:38:45.129Z,97191.22
2019-05-28T00:41:16.976Z,97177.86
2019-05-28T00:43:48.526Z,97176.23
2019-05-28T00:46:20.094Z,97174.24
2019-05-28T00:48:51.653Z,97174.43
2019-05-28T00:51:23.235Z,97174.59
2019-05-28T00:53:54.833Z,97171.30
2019-05-28T00:56:26.621Z,97165.36
2019-05-28T00:58:58.477Z,97170.31
2019-05-28T01:01:30.057Z,97168.81
2019-05-28T01:04:01.670Z,97171.95
2019-05-28T01:06:33.237Z,97164.04
2019-05-28T01:09:07.054Z,97167.81
2019-05-28T01:11:38.607Z,97167.32
2019-05-28T01:14:10.226Z,97165.17
2019-05-28T01:16:41.780Z,97166.66
2019-05-28T01:19:13.365Z,97163.05
2019-05-28T01:21:44.904Z,97164.47
2019-05-28T01:24:16.480Z,97155.59
2019-05-28T01:26:48.039Z,97158.37
2019-05-28T01:29:19.618Z,97150.47
2019-05-28T01:31:51.187Z,97157.89
2019-05-28T01:34:22.767Z,97155.73
2019-05-28T01:36:54.324Z,97152.61
2019-05-28T01:39:25.901Z,97158.68
2019-05-28T01:41:57.437Z,97152.11
2019-05-28T01:44:28.983Z,97156.88
2019-05-28T01:47:00.545Z,97161.62
2019-05-28T01:49:32.078Z,97154.89
2019-05-28T01:52:03.663Z,97159.19
2019-05-28T01:54:35.216Z,97161.00
2019-05-28T01:57:06.797Z,97154.27
2019-05-28T01:59:38.355Z,97151.63
2019-05-28T02:02:09.926Z,97145.38
2019-05-28T02:04:41.526Z,97141.23
2019-05-28T02:07:13.094Z,97147.49
2019-05-28T02:09:44.637Z,97136.13
2019-05-28T02:12:16.242Z,97138.44
2019-05-28T02:14:47.783Z,97138.45
2019-05-28T02:17:19.372Z,97143.87
2019-05-28T02:19:50.923Z,97147.16
2019-05-28T02:22:22.502Z,97147.16
2019-05-28T02:24:54.066Z,97146.34
2019-05-28T02:27:25.643Z,97144.06
2019-05-28T02:29:57.329Z,97149.31
2019-05-28T02:32:29.059Z,97149.00
2019-05-28T02:35:00.604Z,97150.13
2019-05-28T02:37:32.275Z,97147.50
2019-05-28T02:40:04.073Z,97153.73
2019-05-28T02:42:35.870Z,97151.43
2019-05-28T02:45:08.519Z,97154.22
2019-05-28T02:47:40.194Z,97153.41
2019-05-28T02:50:12.516Z,97161.95
2019-05-28T02:52:44.685Z,97164.27
2019-05-28T02:55:17.456Z,97161.64
2019-05-28T02:57:51.227Z,97166.88
2019-05-28T03:00:23.082Z,97166.89
2019-05-28T03:02:55.151Z,97166.23
2019-05-28T03:05:26.925Z,97156.84
2019-05-28T03:07:59.069Z,97155.21
2019-05-28T03:11:01.695Z,97162.28
2019-05-28T03:13:11.481Z,97160.97
2019-05-28T03:15:46.825Z,97156.52
2019-05-28T03:18:20.483Z,97158.17
2019-05-28T03:20:52.859Z,97160.30
2019-05-28T03:23:26.826Z,97147.81
2019-05-28T03:25:59.040Z,97145.50
2019-05-28T03:28:30.960Z,97149.45
2019-05-28T03:31:02.551Z,97149.45
2019-05-28T03:33:34.115Z,97155.05
2019-05-28T03:36:07.396Z,97160.97
2019-05-28T03:38:39.471Z,97154.70
2019-05-28T03:41:11.315Z,97153.89
2019-05-28T03:43:42.904Z,97152.74
2019-05-28T03:46:14.484Z,97160.00
2019-05-28T03:48:47.110Z,97165.27
2019-05-28T03:51:18.713Z,97162.13
2019-05-28T03:53:50.262Z,97164.95
2019-05-28T03:56:21.852Z,97166.42
2019-05-28T03:58:53.405Z,97163.45
2019-05-28T04:01:25.018Z,97163.29
2019-05-28T04:03:56.596Z,97168.05
2019-05-28T04:06:28.182Z,97164.58
2019-05-28T04:08:59.750Z,97164.91
2019-05-28T04:11:44.344Z,97165.23
2019-05-28T04:14:04.588Z,97171.14
2019-05-28T04:16:36.163Z,97174.44
2019-05-28T04:19:07.717Z,97169.68
2019-05-28T04:21:39.292Z,97173.95
2019-05-28T04:24:10.869Z,97170.51
2019-05-28T04:26:42.460Z,97169.84
2019-05-28T04:29:14.044Z,97170.38
2019-05-28T04:31:45.630Z,97174.47
2019-05-28T04:34:17.191Z,97177.94
2019-05-28T04:36:48.784Z,97181.22
2019-05-28T04:39:20.364Z,97185.98
2019-05-28T04:41:51.957Z,97189.63
2019-05-28T04:44:23.540Z,97190.77
2019-05-28T04:46:55.114Z,97192.72
2019-05-28T04:49:26.695Z,97195.05
2019-05-28T04:51:58.283Z,97194.03
2019-05-28T04:54:29.855Z,97196.20
2019-05-28T04:57:01.412Z,97192.25
2019-05-28T04:59:33.007Z,97198.48
2019-05-28T05:02:05.678Z,97197.02
2019-05-28T05:04:37.276Z,97201.45
2019-05-28T05:07:08.854Z,97200.61
2019-05-28T05:09:40.453Z,97204.25
2019-05-28T05:12:12.057Z,97204.72
2019-05-28T05:14:43.624Z,97212.95
2019-05-28T05:17:15.247Z,97208.36
2019-05-28T05:19:46.817Z,97214.25
2019-05-28T05:22:18.412Z,97219.04
2019-05-28T05:24:49.980Z,97213.59
2019-05-28T05:27:21.552Z,97223.14
2019-05-28T05:29:53.151Z,97228.72
2019-05-28T05:32:27.767Z,97228.54
2019-05-28T05:34:58.032Z,97231.98
2019-05-28T05:37:29.620Z,97236.75
2019-05-28T05:40:01.249Z,97234.62
2019-05-28T05:42:32.828Z,97238.56
2019-05-28T05:45:07.468Z,97241.69
2019-05-28T05:47:38.045Z,97244.13
2019-05-28T05:50:10.746Z,97241.50
2019-05-28T05:52:43.447Z,97245.64
2019-05-28T05:55:15.345Z,97244.82
2019-05-28T05:57:46.914Z,97245.82
2019-05-28T06:00:19.483Z,97250.61
2019-05-28T06:02:51.075Z,97242.40
2019-05-28T06:05:22.675Z,97237.14
2019-05-28T06:07:54.257Z,97237.79
2019-05-28T06:10:25.975Z,97235.50
2019-05-28T06:12:57.580Z,97231.05
2019-05-28T06:15:29.197Z,97223.34
2019-05-28T06:18:00.922Z,97215.31
2019-05-28T06:20:32.501Z,97213.84
2019-05-28T06:23:04.255Z,97212.22
2019-05-28T06:25:36.954Z,97212.08
2019-05-28T06:28:08.634Z,97209.62
2019-05-28T06:30:40.212Z,97210.61
2019-05-28T06:33:11.811Z,97212.25
2019-05-28T06:35:43.417Z,97219.83
2019-05-28T06:38:14.990Z,97223.62
2019-05-28T06:40:46.591Z,97223.12
2019-05-28T06:43:18.324Z,97221.45
2019-05-28T06:45:49.949Z,97229.34
2019-05-28T06:48:21.531Z,97230.02
2019-05-28T06:50:53.139Z,97236.41
2019-05-28T06:53:24.729Z,97238.41
2019-05-28T06:55:56.363Z,97233.61
2019-05-28T06:58:38.714Z,97238.89
2019-05-28T07:01:01.408Z,97239.57
2019-05-28T07:03:33.102Z,97235.14
2019-05-28T07:06:07.623Z,97234.98
2019-05-28T07:08:37.997Z,97244.22
2019-05-28T07:11:09.606Z,97242.59
2019-05-28T07:13:41.171Z,97244.89
2019-05-28T07:16:13.812Z,97250.66
2019-05-28T07:18:45.411Z,97244.06
2019-05-28T07:21:16.965Z,97255.80
2019-05-28T07:23:48.550Z,97258.73
2019-05-28T07:26:20.142Z,97257.09
2019-05-28T07:28:51.737Z,97263.31
2019-05-28T07:31:23.291Z,97264.27
2019-05-28T07:33:54.881Z,97261.61
2019-05-28T07:36:26.468Z,97257.78
2019-05-28T07:38:58.055Z,97257.58
2019-05-28T07:41:29.634Z,97250.27
2019-05-28T07:44:01.256Z,97247.36
2019-05-28T07:46:32.837Z,97243.69
2019-05-28T07:49:04.424Z,97241.30
2019-05-28T07:51:36.065Z,97246.52
2019-05-28T07:54:07.588Z,97252.59
2019-05-28T07:56:39.148Z,97248.58
2019-05-28T07:59:10.797Z,97254.73
2019-05-28T08:01:43.437Z,97250.83
2019-05-28T08:04:15.073Z,97254.52
2019-05-28T08:06:54.752Z,97250.80
2019-05-28T08:09:19.892Z,97253.20
2019-05-28T08:11:51.471Z,97252.75
2019-05-28T08:14:23.058Z,97250.80
2019-05-28T08:16:54.640Z,97251.15
2019-05-28T08:19:26.224Z,97255.45
2019-05-28T08:21:57.816Z,97254.64
2019-05-28T08:24:29.486Z,97260.45
2019-05-28T08:27:01.072Z,97265.09
2019-05-28T08:29:32.653Z,97269.55
2019-05-28T08:32:04.269Z,97273.36
2019-05-28T08:34:35.839Z,97274.39
2019-05-28T08:37:07.434Z,97281.00
2019-05-28T08:39:39.011Z,97282.30
2019-05-28T08:42:10.604Z,97283.14
2019-05-28T08:44:43.247Z,97285.27
2019-05-28T08:47:14.826Z,97285.07
2019-05-28T08:49:46.473Z,97290.19
2019-05-28T08:52:18.058Z,97290.19
2019-05-28T08:54:51.264Z,97284.05
2019-05-28T08:57:22.921Z,97284.88
2019-05-28T08:59:54.729Z,97290.06
2019-05-28T09:02:28.705Z,97293.05
2019-05-28T09:04:59.635Z,97296.52
2019-05-28T09:07:31.248Z,97299.69
2019-05-28T09:10:03.029Z,97300.38
2019-05-28T09:12:34.596Z,97300.91
2019-05-28T09:15:06.915Z,97300.22
2019-05-28T09:17:38.513Z,97297.58
2019-05-28T09:20:10.337Z,97297.45
2019-05-28T09:22:41.894Z,97298.45
2019-05-28T09:25:13.585Z,97300.44
2019-05-28T09:27:45.156Z,97297.47
2019-05-28T09:30:17.117Z,97292.68
2019-05-28T09:32:49.094Z,97293.48
2019-05-28T09:35:20.940Z,97295.77
2019-05-28T09:37:52.654Z,97296.11
2019-05-28T09:40:24.430Z,97288.19
2019-05-28T09:42:56.011Z,97291.81
2019-05-28T09:45:28.829Z,97291.45
2019-05-28T09:48:00.480Z,97294.73
2019-05-28T09:50:32.107Z,97293.44
2019-05-28T09:53:03.745Z,97297.56
2019-05-28T09:55:35.326Z,97298.42
2019-05-28T09:58:08.500Z,97297.13
2019-05-28T10:00:56.757Z,97292.50
2019-05-28T10:03:13.896Z,97303.55
2019-05-28T10:05:58.571Z,97304.72
2019-05-28T10:08:18.826Z,97309.98
2019-05-28T10:10:51.519Z,97307.17
2019-05-28T10:13:37.456Z,97315.41
2019-05-28T10:15:57.626Z,97314.75
2019-05-28T10:18:29.202Z,97318.52
2019-05-28T10:21:16.861Z,97321.95
2019-05-28T10:23:34.139Z,97321.59
2019-05-28T10:26:05.725Z,97326.70
2019-05-28T10:28:37.349Z,97325.69
2019-05-28T10:31:08.917Z,97334.12
2019-05-28T10:33:40.494Z,97319.86
2019-05-28T10:36:12.071Z,97331.66
2019-05-28T10:38:43.723Z,97330.79
2019-05-28T10:41:15.335Z,97322.11
2019-05-28T10:43:46.902Z,97334.55
2019-05-28T10:46:18.572Z,97339.58
2019-05-28T10:48:50.119Z,97342.66
2019-05-28T10:51:21.721Z,97346.13
2019-05-28T10:53:53.291Z,97346.11
2019-05-28T10:56:24.895Z,97353.23
2019-05-28T10:58:56.476Z,97352.38
2019-05-28T11:01:28.068Z,97350.66
2019-05-28T11:03:59.679Z,97358.32
2019-05-28T11:06:31.260Z,97356.03
2019-05-28T11:09:02.887Z,97357.02
2019-05-28T11:11:34.473Z,97355.69
2019-05-28T11:14:06.640Z,97360.80
2019-05-28T11:16:38.240Z,97363.37
2019-05-28T11:19:09.864Z,97361.47
2019-05-28T11:21:41.480Z,97368.39
2019-05-28T11:24:13.069Z,97372.30
2019-05-28T11:26:44.670Z,97376.83
2019-05-28T11:29:16.255Z,97378.47
2019-05-28T11:31:47.856Z,97383.27
2019-05-28T11:34:19.555Z,97372.38
2019-05-28T11:37:08.071Z,97372.12
2019-05-28T11:39:24.578Z,97382.19
2019-05-28T11:41:57.277Z,97385.10
2019-05-28T11:44:29.021Z,97387.14
2019-05-28T11:47:00.635Z,97386.92
2019-05-28T11:49:32.204Z,97390.54
2019-05-28T11:52:03.948Z,97388.02
2019-05-28T11:54:35.568Z,97394.97
2019-05-28T11:57:07.138Z,97395.61
2019-05-28T11:59:38.732Z,97394.98
2019-05-28T12:02:10.427Z,97393.59
2019-05-28T12:04:42.056Z,97389.24
2019-05-28T12:07:25.570Z,97385.70
2019-05-28T12:09:47.992Z,97388.98
2019-05-28T12:12:19.580Z,97392.41
2019-05-28T12:14:51.158Z,97399.84
2019-05-28T12:17:40.864Z,97394.55
2019-05-28T12:19:57.141Z,97393.83
2019-05-28T12:22:28.767Z,97392.11
2019-05-28T12:25:00.353Z,97390.42
2019-05-28T12:27:31.960Z,97382.20
2019-05-28T12:30:03.869Z,97378.97
2019-05-28T12:32:36.512Z,97384.69
2019-05-28T12:35:26.327Z,97384.80
2019-05-28T12:37:48.361Z,97375.81
2019-05-28T12:40:16.350Z,97371.70
2019-05-28T12:42:47.952Z,97384.17
2019-05-28T12:45:34.346Z,97372.21
2019-05-28T12:48:09.665Z,97367.53
2019-05-28T12:50:28.240Z,97372.44
2019-05-28T12:53:00.280Z,97378.11
2019-05-28T12:55:31.897Z,97377.52
2019-05-28T12:58:03.635Z,97367.78
2019-05-28T13:00:36.722Z,97365.83
2019-05-28T13:03:08.364Z,97363.37
2019-05-28T13:05:40.036Z,97365.46
2019-05-28T13:08:11.757Z,97363.06
2019-05-28T13:10:43.351Z,97363.06
2019-05-28T13:13:14.935Z,97367.70
2019-05-28T13:15:46.540Z,97360.47
2019-05-28T13:18:18.593Z,97371.11
2019-05-28T13:20:50.214Z,97368.11
2019-05-28T13:23:21.782Z,97374.95
2019-05-28T13:25:53.415Z,97375.14
2019-05-28T13:28:25.022Z,97370.98
2019-05-28T13:30:56.629Z,97373.95
2019-05-28T13:33:28.511Z,97369.31
2019-05-28T13:36:00.154Z,97367.62
2019-05-28T13:38:31.765Z,97365.81
2019-05-28T13:41:03.381Z,97367.33
2019-05-28T13:43:35.145Z,97362.59
2019-05-28T13:46:06.794Z,97360.31
2019-05-28T13:48:38.378Z,97360.12
2019-05-28T13:51:09.991Z,97353.88
2019-05-28T13:53:42.649Z,97359.04
2019-05-28T13:56:14.259Z,97355.77
2019-05-28T13:58:45.861Z,97355.81
2019-05-28T14:01:17.546Z,97352.45
2019-05-28T14:03:49.077Z,97359.18
2019-05-28T14:06:20.663Z,97351.45
2019-05-28T14:08:52.221Z,97355.77
2019-05-28T14:11:23.833Z,97356.82
2019-05-28T14:13:56.521Z,97354.16
2019-05-28T14:16:28.124Z,97355.02
2019-05-28T14:18:59.830Z,97360.45
2019-05-28T14:21:31.442Z,97352.43
2019-05-28T14:24:03.047Z,97352.24
2019-05-28T14:26:34.638Z,97346.28
2019-05-28T14:29:06.290Z,97347.05
2019-05-28T14:31:37.875Z,97347.70
2019-05-28T14:34:09.454Z,97348.71
2019-05-28T14:36:41.091Z,97340.56
2019-05-28T14:39:12.724Z,97342.83
2019-05-28T14:41:44.322Z,97351.98
2019-05-28T14:44:15.926Z,97348.47
2019-05-28T14:46:47.508Z,97354.83
2019-05-28T14:49:19.102Z,97354.34
2019-05-28T14:51:50.756Z,97362.13
2019-05-28T14:54:22.372Z,97365.16
2019-05-28T14:56:53.984Z,97359.57
2019-05-28T14:59:25.658Z,97353.20
2019-05-28T15:01:57.232Z,97359.27
2019-05-28T15:04:28.873Z,97369.30
2019-05-28T15:07:00.439Z,97370.63
2019-05-28T15:09:32.038Z,97378.56
2019-05-28T15:12:03.992Z,97378.68
2019-05-28T15:14:35.871Z,97379.13
2019-05-28T15:17:07.499Z,97375.97
2019-05-28T15:19:39.081Z,97374.13
2019-05-28T15:22:10.740Z,97390.65
2019-05-28T15:24:42.615Z,97392.05
2019-05-28T15:27:14.204Z,97393.19
2019-05-28T15:29:46.929Z,97395.27
2019-05-28T15:32:18.546Z,97402.95
2019-05-28T15:34:50.166Z,97396.56
2019-05-28T15:37:21.766Z,97395.55
2019-05-28T15:39:53.349Z,97393.49
2019-05-28T15:42:25.018Z,97398.02
2019-05-28T15:44:56.657Z,97398.80
2019-05-28T15:47:28.309Z,97404.81
2019-05-28T15:50:00.124Z,97405.73
2019-05-28T15:52:31.999Z,97398.30
2019-05-28T15:55:03.673Z,97401.86
2019-05-28T15:57:35.299Z,97405.14
2019-05-28T16:00:08.265Z,97407.45
2019-05-28T16:02:39.949Z,97405.05
2019-05-28T16:05:11.883Z,97416.98
2019-05-28T16:07:43.426Z,97412.05
2019-05-28T16:10:15.860Z,97409.06
2019-05-28T16:12:47.428Z,97412.58
2019-05-28T16:15:21.126Z,97411.92
2019-05-28T16:17:52.726Z,97416.28
2019-05-28T16:20:24.442Z,97418.66
2019-05-28T16:22:56.060Z,97411.27
2019-05-28T16:25:27.664Z,97423.53
2019-05-28T16:27:59.249Z,97419.67
2019-05-28T16:30:31.948Z,97422.77
2019-05-28T16:33:03.655Z,97431.34
2019-05-28T16:35:35.348Z,97433.04
2019-05-28T16:38:06.948Z,97437.95
2019-05-28T16:40:38.542Z,97441.70
2019-05-28T16:43:10.133Z,97440.64
2019-05-28T16:45:41.807Z,97438.05
2019-05-28T16:48:13.440Z,97442.63
2019-05-28T16:50:45.067Z,97446.98
2019-05-28T16:53:16.654Z,97451.39
2019-05-28T16:55:48.297Z,97457.93
2019-05-28T16:58:19.936Z,97459.94
2019-05-28T17:00:51.552Z,97458.99
2019-05-28T17:03:23.141Z,97465.65
2019-05-28T17:05:54.735Z,97461.22
2019-05-28T17:08:26.365Z,97469.50
2019-05-28T17:10:58.017Z,97469.97
2019-05-28T17:13:31.328Z,97469.44
2019-05-28T17:16:02.973Z,97474.70
2019-05-28T17:18:34.765Z,97476.84
2019-05-28T17:21:06.368Z,97478.20
2019-05-28T17:23:37.966Z,97480.73
2019-05-28T17:26:09.712Z,97489.20
2019-05-28T17:28:41.414Z,97486.63
2019-05-28T17:31:13.143Z,97494.80
2019-05-28T17:33:44.750Z,97492.20
2019-05-28T17:36:16.367Z,97500.36
2019-05-28T17:38:47.951Z,97500.87
2019-05-28T17:41:20.136Z,97501.73
2019-05-28T17:43:53.047Z,97503.23
2019-05-28T17:46:24.721Z,97506.56
2019-05-28T17:48:56.323Z,97504.73
2019-05-28T17:51:27.932Z,97504.94
2019-05-28T17:53:59.520Z,97510.06
2019-05-28T17:56:31.270Z,97515.69
2019-05-28T17:59:02.843Z,97516.84
2019-05-28T18:01:34.499Z,97517.00
2019-05-28T18:04:06.197Z,97522.80
2019-05-28T18:06:37.852Z,97521.81
2019-05-28T18:09:09.727Z,97524.12
2019-05-28T18:11:41.327Z,97535.22
2019-05-28T18:14:12.908Z,97531.92
2019-05-28T18:16:44.550Z,97539.87
2019-05-28T18:19:16.230Z,97541.02
2019-05-28T18:21:47.868Z,97545.15
2019-05-28T18:24:20.918Z,97546.80
2019-05-28T18:26:52.741Z,97547.31
2019-05-28T18:29:24.353Z,97549.44
2019-05-28T18:31:56.010Z,97551.94
2019-05-28T18:34:27.616Z,97551.76
2019-05-28T18:36:59.255Z,97561.98
2019-05-28T18:39:30.847Z,97562.32
2019-05-28T18:42:02.504Z,97565.12
2019-05-28T18:44:34.121Z,97571.41
2019-05-28T18:47:05.741Z,97573.06
2019-05-28T18:49:38.482Z,97576.84
2019-05-28T18:52:10.095Z,97580.49
2019-05-28T18:54:41.724Z,97584.78
2019-05-28T18:57:13.370Z,97601.42
2019-05-28T18:59:45.140Z,97609.83
2019-05-28T19:02:16.787Z,97609.81
2019-05-28T19:04:48.506Z,97615.42
2019-05-28T19:07:20.119Z,97621.33
2019-05-28T19:09:51.749Z,97622.97
2019-05-28T19:12:23.335Z,97628.58
2019-05-28T19:14:55.052Z,97632.51
2019-05-28T19:17:26.639Z,97634.12
2019-05-28T19:19:58.325Z,97638.77
2019-05-28T19:22:29.936Z,97644.34
2019-05-28T19:25:01.632Z,97656.66
2019-05-28T19:27:35.545Z,97659.77
2019-05-28T19:30:08.439Z,97668.00
2019-05-28T19:32:40.245Z,97670.60
2019-05-28T19:35:13.460Z,97673.55
2019-05-28T19:37:45.508Z,97676.20
2019-05-28T19:40:25.468Z,97674.95
2019-05-28T19:42:57.342Z,97675.19
2019-05-28T19:45:28.927Z,97689.83
2019-05-28T19:48:00.565Z,97690.44
2019-05-28T19:50:32.162Z,97691.59
2019-05-28T19:53:05.592Z,97699.25
2019-05-28T19:55:38.419Z,97700.16
2019-05-28T19:58:10.131Z,97703.05
2019-05-28T20:00:43.564Z,97704.80
2019-05-28T20:03:15.268Z,97708.99
2019-05-28T20:05:46.895Z,97714.04
2019-05-28T20:08:18.790Z,97716.05
2019-05-28T20:10:50.887Z,97719.75
2019-05-28T20:13:22.638Z,97728.84
2019-05-28T20:15:56.906Z,97733.34
2019-05-28T20:18:27.605Z,97730.70
2019-05-28T20:20:59.229Z,97734.16
2019-05-28T20:23:30.820Z,97738.10
2019-05-28T20:26:02.414Z,97743.87
2019-05-28T20:28:34.540Z,97744.48
2019-05-28T20:31:06.174Z,97744.78
2019-05-28T20:33:37.861Z,97743.80
2019-05-28T20:36:09.995Z,97750.96
2019-05-28T20:38:41.815Z,97750.84
2019-05-28T20:41:13.415Z,97756.73
2019-05-28T20:43:45.094Z,97757.61
2019-05-28T20:46:16.723Z,97761.78
2019-05-28T20:48:48.304Z,97761.05
2019-05-28T20:51:21.970Z,97765.31
2019-05-28T20:53:53.194Z,97774.53
2019-05-28T20:56:24.781Z,97768.91
2019-05-28T20:59:00.981Z,97767.25
2019-05-28T21:01:30.894Z,97769.88
2019-05-28T21:04:02.499Z,97770.58
2019-05-28T21:06:34.107Z,97772.19
2019-05-28T21:09:07.491Z,97775.78
2019-05-28T21:11:39.109Z,97778.76
2019-05-28T21:14:10.719Z,97777.91
2019-05-28T21:16:42.387Z,97780.36
2019-05-28T21:19:13.975Z,97789.01
2019-05-28T21:21:46.657Z,97785.99
2019-05-28T21:24:18.248Z,97783.50
2019-05-28T21:26:50.057Z,97787.30
2019-05-28T21:29:21.839Z,97786.92
2019-05-28T21:31:54.497Z,97783.05
2019-05-28T21:34:26.178Z,97781.95
2019-05-28T21:36:57.798Z,97785.94
2019-05-28T21:39:29.387Z,97785.54
2019-05-28T21:42:02.181Z,97789.23
2019-05-28T21:44:34.241Z,97785.28
2019-05-28T21:47:05.972Z,97787.38
2019-05-28T21:49:38.493Z,97791.59
2019-05-28T21:52:10.134Z,97799.41
2019-05-28T21:54:41.764Z,97798.86
2019-05-28T21:57:13.368Z,97800.92
2019-05-28T21:59:44.933Z,97801.48
2019-05-28T22:02:16.533Z,97811.23
2019-05-28T22:04:48.117Z,97814.05
2019-05-28T22:07:19.706Z,97816.27
2019-05-28T22:09:51.273Z,97819.30
2019-05-28T22:12:22.879Z,97823.61
2019-05-28T22:14:54.452Z,97824.70
2019-05-28T22:17:26.045Z,97823.79
2019-05-28T22:19:58.681Z,97826.59
2019-05-28T22:22:30.353Z,97825.14
2019-05-28T22:25:02.695Z,97823.23
2019-05-28T22:27:34.395Z,97823.08
2019-05-28T22:30:07.944Z,97823.84
2019-05-28T22:32:39.557Z,97827.45
2019-05-28T22:35:11.519Z,97836.11
2019-05-28T22:37:43.119Z,97831.98
2019-05-28T22:40:14.987Z,97840.34
2019-05-28T22:42:46.563Z,97840.87
2019-05-28T22:45:18.332Z,97840.18
2019-05-28T22:47:49.916Z,97848.20
2019-05-28T22:50:23.404Z,97849.28
2019-05-28T22:52:55.168Z,97846.10
2019-05-28T22:55:26.759Z,97845.19
2019-05-28T22:57:58.338Z,97850.94
2019-05-28T23:00:29.962Z,97849.81
2019-05-28T23:03:02.847Z,97850.28
2019-05-28T23:05:34.553Z,97851.59
2019-05-28T23:08:06.346Z,97857.45
2019-05-28T23:10:37.941Z,97861.27
2019-05-28T23:13:09.507Z,97864.38
2019-05-28T23:15:41.075Z,97863.45
2019-05-28T23:18:12.657Z,97868.59
2019-05-28T23:20:44.323Z,97866.35
2019-05-28T23:23:15.882Z,97877.83
2019-05-28T23:25:47.489Z,97876.41
2019-05-28T23:28:19.042Z,97882.02
2019-05-28T23:30:50.618Z,97880.77
2019-05-28T23:33:22.242Z,97884.99
2019-05-28T23:35:53.845Z,97882.63
2019-05-28T23:38:25.410Z,97891.05
2019-05-28T23:40:56.978Z,97886.80
2019-05-28T23:43:28.589Z,97893.92
2019-05-28T23:46:00.191Z,97898.58
2019-05-28T23:48:31.771Z,97901.08
2019-05-28T23:51:06.333Z,97904.93
2019-05-28T23:53:38.009Z,97902.52
2019-05-28T23:56:09.739Z,97904.69
2019-05-28T23:58:41.321Z,97907.30
